createdAt,value
2018-06-24T00:00:14.059Z,62.02
2018-06-24T00:00:39.627Z,61.74
2018-06-24T00:01:05.208Z,62.22
2018-06-24T00:01:30.786Z,61.93
2018-06-24T00:01:56.344Z,61.93
2018-06-24T00:02:21.933Z,62.12
2018-06-24T00:02:47.484Z,62.02
2018-06-24T00:03:13.062Z,61.83
2018-06-24T00:03:38.633Z,61.93
2018-06-24T00:04:04.209Z,62.12
2018-06-24T00:04:29.753Z,61.74
2018-06-24T00:04:55.356Z,61.93
2018-06-24T00:05:20.920Z,61.74
2018-06-24T00:05:46.493Z,61.74
2018-06-24T00:06:12.088Z,61.74
2018-06-24T00:06:37.649Z,61.74
2018-06-24T00:07:03.224Z,61.83
2018-06-24T00:07:28.795Z,61.93
2018-06-24T00:07:54.382Z,61.74
2018-06-24T00:08:19.935Z,61.83
2018-06-24T00:08:45.543Z,61.83
2018-06-24T00:09:11.118Z,61.83
2018-06-24T00:09:36.695Z,61.83
2018-06-24T00:10:02.276Z,61.74
2018-06-24T00:10:27.831Z,61.83
2018-06-24T00:10:53.407Z,61.83
2018-06-24T00:11:18.977Z,61.83
2018-06-24T00:11:44.549Z,61.93
2018-06-24T00:12:10.123Z,61.93
2018-06-24T00:12:35.699Z,61.74
2018-06-24T00:13:01.273Z,61.83
2018-06-24T00:13:26.834Z,61.74
2018-06-24T00:13:52.492Z,61.83
2018-06-24T00:14:18.015Z,61.83
2018-06-24T00:14:43.544Z,61.93
2018-06-24T00:15:09.120Z,62.02
2018-06-24T00:15:34.692Z,62.02
2018-06-24T00:16:00.249Z,61.93
2018-06-24T00:16:25.838Z,61.83
2018-06-24T00:16:51.425Z,61.83
2018-06-24T00:17:17.027Z,61.74
2018-06-24T00:17:42.624Z,61.74
2018-06-24T00:18:08.169Z,61.93
2018-06-24T00:18:33.727Z,61.74
2018-06-24T00:18:59.289Z,61.93
2018-06-24T00:19:24.830Z,61.74
2018-06-24T00:19:50.438Z,61.93
2018-06-24T00:20:15.989Z,61.93
2018-06-24T00:20:41.546Z,62.12
2018-06-24T00:21:07.116Z,61.83
2018-06-24T00:21:32.677Z,61.54
2018-06-24T00:21:58.236Z,61.83
2018-06-24T00:22:23.812Z,61.93
2018-06-24T00:22:49.371Z,61.83
2018-06-24T00:23:14.929Z,61.74
2018-06-24T00:23:40.509Z,61.93
2018-06-24T00:24:06.065Z,61.93
2018-06-24T00:24:31.617Z,62.12
2018-06-24T00:24:57.179Z,62.02
2018-06-24T00:25:22.733Z,61.93
2018-06-24T00:25:48.314Z,61.93
2018-06-24T00:26:13.894Z,61.93
2018-06-24T00:26:39.449Z,61.64
2018-06-24T00:27:05.034Z,61.64
2018-06-24T00:27:30.598Z,61.93
2018-06-24T00:27:56.159Z,61.54
2018-06-24T00:28:21.721Z,61.93
2018-06-24T00:28:47.285Z,61.64
2018-06-24T00:29:12.880Z,61.83
2018-06-24T00:29:38.442Z,61.74
2018-06-24T00:30:04.009Z,61.16
2018-06-24T00:30:29.572Z,61.35
2018-06-24T00:30:55.132Z,61.44
2018-06-24T00:31:20.698Z,61.35
2018-06-24T00:31:46.277Z,61.25
2018-06-24T00:32:11.830Z,61.44
2018-06-24T00:32:37.401Z,61.35
2018-06-24T00:33:02.979Z,61.35
2018-06-24T00:33:28.553Z,61.35
2018-06-24T00:33:54.104Z,61.35
2018-06-24T00:34:19.651Z,61.25
2018-06-24T00:34:45.207Z,61.25
2018-06-24T00:35:10.763Z,61.16
2018-06-24T00:35:36.317Z,61.25
2018-06-24T00:36:01.894Z,61.44
2018-06-24T00:36:27.470Z,61.25
2018-06-24T00:36:53.019Z,61.35
2018-06-24T00:37:18.661Z,61.54
2018-06-24T00:37:44.155Z,61.54
2018-06-24T00:38:09.728Z,61.35
2018-06-24T00:38:35.312Z,61.35
2018-06-24T00:39:00.919Z,61.25
2018-06-24T00:39:26.495Z,61.35
2018-06-24T00:39:52.070Z,61.16
2018-06-24T00:40:17.658Z,61.54
2018-06-24T00:40:43.196Z,61.54
2018-06-24T00:41:08.781Z,61.25
2018-06-24T00:41:34.350Z,61.16
2018-06-24T00:41:59.908Z,61.16
2018-06-24T00:42:25.468Z,61.35
2018-06-24T00:42:51.046Z,61.25
2018-06-24T00:43:16.620Z,61.35
2018-06-24T00:43:42.174Z,61.54
2018-06-24T00:44:07.743Z,61.54
2018-06-24T00:44:33.312Z,61.35
2018-06-24T00:44:58.880Z,61.44
2018-06-24T00:45:24.446Z,61.54
2018-06-24T00:45:50.017Z,61.44
2018-06-24T00:46:15.603Z,61.44
2018-06-24T00:46:41.176Z,61.25
2018-06-24T00:47:06.762Z,61.16
2018-06-24T00:47:32.340Z,61.44
2018-06-24T00:47:57.887Z,60.86
2018-06-24T00:48:23.509Z,61.06
2018-06-24T00:48:49.070Z,61.16
2018-06-24T00:49:14.641Z,61.16
2018-06-24T00:49:40.190Z,61.25
2018-06-24T00:50:05.778Z,61.25
2018-06-24T00:50:31.358Z,61.16
2018-06-24T00:50:56.906Z,61.35
2018-06-24T00:51:22.487Z,61.25
2018-06-24T00:51:48.057Z,61.44
2018-06-24T00:52:13.603Z,61.06
2018-06-24T00:52:39.180Z,61.16
2018-06-24T00:53:04.742Z,61.16
2018-06-24T00:53:30.330Z,61.25
2018-06-24T00:53:55.876Z,61.06
2018-06-24T00:54:21.452Z,61.06
2018-06-24T00:54:47.014Z,61.06
2018-06-24T00:55:12.543Z,61.25
2018-06-24T00:55:38.098Z,61.25
2018-06-24T00:56:03.650Z,61.35
2018-06-24T00:56:29.290Z,61.16
2018-06-24T00:56:54.916Z,61.06
2018-06-24T00:57:20.479Z,61.35
2018-06-24T00:57:46.027Z,60.96
2018-06-24T00:58:11.594Z,61.35
2018-06-24T00:58:37.153Z,61.44
2018-06-24T00:59:02.722Z,60.86
2018-06-24T00:59:28.284Z,61.25
2018-06-24T00:59:53.870Z,61.25
2018-06-24T01:00:19.442Z,61.25
2018-06-24T01:00:45.006Z,61.16
2018-06-24T01:01:10.584Z,61.44
2018-06-24T01:01:36.156Z,61.16
2018-06-24T01:02:01.730Z,61.25
2018-06-24T01:02:27.298Z,60.86
2018-06-24T01:02:52.866Z,61.16
2018-06-24T01:03:18.440Z,61.25
2018-06-24T01:03:44.015Z,61.25
2018-06-24T01:04:09.570Z,61.54
2018-06-24T01:04:35.147Z,61.16
2018-06-24T01:05:00.758Z,61.64
2018-06-24T01:05:26.363Z,61.44
2018-06-24T01:05:51.941Z,61.44
2018-06-24T01:06:17.514Z,61.44
2018-06-24T01:06:43.071Z,61.16
2018-06-24T01:07:08.655Z,61.25
2018-06-24T01:07:34.266Z,61.44
2018-06-24T01:07:59.813Z,61.44
2018-06-24T01:08:25.386Z,61.54
2018-06-24T01:08:50.948Z,61.74
2018-06-24T01:09:16.547Z,61.54
2018-06-24T01:09:42.111Z,61.44
2018-06-24T01:10:07.663Z,61.54
2018-06-24T01:10:33.244Z,60.96
2018-06-24T01:10:58.831Z,61.54
2018-06-24T01:11:24.378Z,61.44
2018-06-24T01:11:49.943Z,61.44
2018-06-24T01:12:15.522Z,61.64
2018-06-24T01:12:41.108Z,61.16
2018-06-24T01:13:06.686Z,61.35
2018-06-24T01:13:32.251Z,61.64
2018-06-24T01:13:57.791Z,61.44
2018-06-24T01:14:23.378Z,61.35
2018-06-24T01:14:48.936Z,61.54
2018-06-24T01:15:14.543Z,61.44
2018-06-24T01:15:40.109Z,61.25
2018-06-24T01:16:05.682Z,61.35
2018-06-24T01:16:31.232Z,61.35
2018-06-24T01:16:56.803Z,61.44
2018-06-24T01:17:22.385Z,61.44
2018-06-24T01:17:47.955Z,61.44
2018-06-24T01:18:13.548Z,61.44
2018-06-24T01:18:39.114Z,61.54
2018-06-24T01:19:04.703Z,61.54
2018-06-24T01:19:30.257Z,61.54
2018-06-24T01:19:55.821Z,61.54
2018-06-24T01:20:21.391Z,61.44
2018-06-24T01:20:46.967Z,61.54
2018-06-24T01:21:12.538Z,61.64
2018-06-24T01:21:38.111Z,61.44
2018-06-24T01:22:03.679Z,61.54
2018-06-24T01:22:29.239Z,61.44
2018-06-24T01:22:54.800Z,61.54
2018-06-24T01:23:20.373Z,61.44
2018-06-24T01:23:45.947Z,61.44
2018-06-24T01:24:11.543Z,61.74
2018-06-24T01:24:37.121Z,61.74
2018-06-24T01:25:02.659Z,61.25
2018-06-24T01:25:28.199Z,61.44
2018-06-24T01:25:53.795Z,61.25
2018-06-24T01:26:19.375Z,61.44
2018-06-24T01:26:44.935Z,61.25
2018-06-24T01:27:10.517Z,61.44
2018-06-24T01:27:36.098Z,61.44
2018-06-24T01:28:01.668Z,61.25
2018-06-24T01:28:27.229Z,61.64
2018-06-24T01:28:52.808Z,61.44
2018-06-24T01:29:18.361Z,61.16
2018-06-24T01:29:43.922Z,61.25
2018-06-24T01:30:09.524Z,61.25
2018-06-24T01:30:35.063Z,61.25
2018-06-24T01:31:00.629Z,61.44
2018-06-24T01:31:26.215Z,61.54
2018-06-24T01:31:51.810Z,61.54
2018-06-24T01:32:17.383Z,61.44
2018-06-24T01:32:42.971Z,61.54
2018-06-24T01:33:08.533Z,61.25
2018-06-24T01:33:34.104Z,61.35
2018-06-24T01:33:59.655Z,61.44
2018-06-24T01:34:25.229Z,61.54
2018-06-24T01:34:50.805Z,61.44
2018-06-24T01:35:16.379Z,61.54
2018-06-24T01:35:41.956Z,61.64
2018-06-24T01:36:07.526Z,61.06
2018-06-24T01:36:33.101Z,61.35
2018-06-24T01:36:58.667Z,60.96
2018-06-24T01:37:24.237Z,61.44
2018-06-24T01:37:49.795Z,61.44
2018-06-24T01:38:15.338Z,61.06
2018-06-24T01:38:40.931Z,61.35
2018-06-24T01:39:06.509Z,61.44
2018-06-24T01:39:32.119Z,61.44
2018-06-24T01:39:57.677Z,61.54
2018-06-24T01:40:23.267Z,61.54
2018-06-24T01:40:48.832Z,61.64
2018-06-24T01:41:14.419Z,61.64
2018-06-24T01:41:39.983Z,61.44
2018-06-24T01:42:05.527Z,61.44
2018-06-24T01:42:31.095Z,61.54
2018-06-24T01:42:56.649Z,61.54
2018-06-24T01:43:22.225Z,61.54
2018-06-24T01:43:47.794Z,61.16
2018-06-24T01:44:13.367Z,61.44
2018-06-24T01:44:38.924Z,61.16
2018-06-24T01:45:04.513Z,61.35
2018-06-24T01:45:30.088Z,61.44
2018-06-24T01:45:55.638Z,61.25
2018-06-24T01:46:21.227Z,61.35
2018-06-24T01:46:46.807Z,61.16
2018-06-24T01:47:12.395Z,61.16
2018-06-24T01:47:38.068Z,61.54
2018-06-24T01:48:03.545Z,61.54
2018-06-24T01:48:29.092Z,61.06
2018-06-24T01:48:54.679Z,61.54
2018-06-24T01:49:20.237Z,61.54
2018-06-24T01:49:45.797Z,61.54
2018-06-24T01:50:11.375Z,61.64
2018-06-24T01:50:36.935Z,61.06
2018-06-24T01:51:02.490Z,61.16
2018-06-24T01:51:28.075Z,60.96
2018-06-24T01:51:53.617Z,61.16
2018-06-24T01:52:19.232Z,61.16
2018-06-24T01:52:44.811Z,61.16
2018-06-24T01:53:10.387Z,61.06
2018-06-24T01:53:35.947Z,61.06
2018-06-24T01:54:01.522Z,61.25
2018-06-24T01:54:27.116Z,61.16
2018-06-24T01:54:52.715Z,61.16
2018-06-24T01:55:18.303Z,61.06
2018-06-24T01:55:43.923Z,61.25
2018-06-24T01:56:09.498Z,61.06
2018-06-24T01:56:35.042Z,61.16
2018-06-24T01:57:00.616Z,61.35
2018-06-24T01:57:26.183Z,61.35
2018-06-24T01:57:51.765Z,61.54
2018-06-24T01:58:17.306Z,61.16
2018-06-24T01:58:42.901Z,61.35
2018-06-24T01:59:08.465Z,61.25
2018-06-24T01:59:34.023Z,61.25
2018-06-24T01:59:59.595Z,61.16
2018-06-24T02:00:25.328Z,61.35
2018-06-24T02:00:50.935Z,61.35
2018-06-24T02:01:16.487Z,61.35
2018-06-24T02:01:42.052Z,61.35
2018-06-24T02:02:07.609Z,61.35
2018-06-24T02:02:33.212Z,61.35
2018-06-24T02:02:58.769Z,61.35
2018-06-24T02:03:24.326Z,61.25
2018-06-24T02:03:50.181Z,61.16
2018-06-24T02:04:16.367Z,61.35
2018-06-24T02:04:41.501Z,61.35
2018-06-24T02:05:07.067Z,61.35
2018-06-24T02:05:32.623Z,61.16
2018-06-24T02:05:58.274Z,61.16
2018-06-24T02:06:23.849Z,61.35
2018-06-24T02:06:49.425Z,61.16
2018-06-24T02:07:15.013Z,61.54
2018-06-24T02:07:40.577Z,61.06
2018-06-24T02:08:06.130Z,61.74
2018-06-24T02:08:31.687Z,61.64
2018-06-24T02:08:57.259Z,61.83
2018-06-24T02:09:22.837Z,61.64
2018-06-24T02:09:48.403Z,61.54
2018-06-24T02:10:13.964Z,61.74
2018-06-24T02:10:39.537Z,61.64
2018-06-24T02:11:05.092Z,61.54
2018-06-24T02:11:30.665Z,61.83
2018-06-24T02:11:56.258Z,61.64
2018-06-24T02:12:21.831Z,61.64
2018-06-24T02:12:47.424Z,61.64
2018-06-24T02:13:12.981Z,61.64
2018-06-24T02:13:38.545Z,61.93
2018-06-24T02:14:04.159Z,61.74
2018-06-24T02:14:29.767Z,61.64
2018-06-24T02:14:55.336Z,62.02
2018-06-24T02:15:20.905Z,61.93
2018-06-24T02:15:46.470Z,62.02
2018-06-24T02:16:12.081Z,62.02
2018-06-24T02:16:37.655Z,61.74
2018-06-24T02:17:03.222Z,62.02
2018-06-24T02:17:28.807Z,61.93
2018-06-24T02:17:54.421Z,61.83
2018-06-24T02:18:20.005Z,61.93
2018-06-24T02:18:45.570Z,61.93
2018-06-24T02:19:11.155Z,61.93
2018-06-24T02:19:36.717Z,61.93
2018-06-24T02:20:02.275Z,62.02
2018-06-24T02:20:27.835Z,61.93
2018-06-24T02:20:53.403Z,62.02
2018-06-24T02:21:18.977Z,61.93
2018-06-24T02:21:44.549Z,61.93
2018-06-24T02:22:10.117Z,61.93
2018-06-24T02:22:35.652Z,61.64
2018-06-24T02:23:01.227Z,61.74
2018-06-24T02:23:26.806Z,62.02
2018-06-24T02:23:52.383Z,61.93
2018-06-24T02:24:17.943Z,61.83
2018-06-24T02:24:43.503Z,62.02
2018-06-24T02:25:09.070Z,61.93
2018-06-24T02:25:34.645Z,61.93
2018-06-24T02:26:00.228Z,61.93
2018-06-24T02:26:25.789Z,61.83
2018-06-24T02:26:51.379Z,61.93
2018-06-24T02:27:16.942Z,62.02
2018-06-24T02:27:42.501Z,61.54
2018-06-24T02:28:08.043Z,61.93
2018-06-24T02:28:33.623Z,61.93
2018-06-24T02:28:59.182Z,62.12
2018-06-24T02:29:24.743Z,62.12
2018-06-24T02:29:50.356Z,61.93
2018-06-24T02:30:15.887Z,61.93
2018-06-24T02:30:41.445Z,62.02
2018-06-24T02:31:07.007Z,61.93
2018-06-24T02:31:32.603Z,62.02
2018-06-24T02:31:58.211Z,62.02
2018-06-24T02:32:23.790Z,61.93
2018-06-24T02:32:49.359Z,61.54
2018-06-24T02:33:14.943Z,61.74
2018-06-24T02:33:40.497Z,61.54
2018-06-24T02:34:06.067Z,62.02
2018-06-24T02:34:31.643Z,61.93
2018-06-24T02:34:57.201Z,62.12
2018-06-24T02:35:22.777Z,62.22
2018-06-24T02:35:48.343Z,61.93
2018-06-24T02:36:13.894Z,61.93
2018-06-24T02:36:39.470Z,61.83
2018-06-24T02:37:05.042Z,61.93
2018-06-24T02:37:30.601Z,61.93
2018-06-24T02:37:56.181Z,61.93
2018-06-24T02:38:21.737Z,61.93
2018-06-24T02:38:47.328Z,62.12
2018-06-24T02:39:12.903Z,61.93
2018-06-24T02:39:38.483Z,62.12
2018-06-24T02:40:04.109Z,61.54
2018-06-24T02:40:29.674Z,61.54
2018-06-24T02:40:55.234Z,62.12
2018-06-24T02:41:20.791Z,62.02
2018-06-24T02:41:46.353Z,61.93
2018-06-24T02:42:11.919Z,62.02
2018-06-24T02:42:37.487Z,62.02
2018-06-24T02:43:03.080Z,61.83
2018-06-24T02:43:28.629Z,62.02
2018-06-24T02:43:54.205Z,62.02
2018-06-24T02:44:19.795Z,62.02
2018-06-24T02:44:45.395Z,61.74
2018-06-24T02:45:10.960Z,62.02
2018-06-24T02:45:36.536Z,61.93
2018-06-24T02:46:02.087Z,61.83
2018-06-24T02:46:27.647Z,61.83
2018-06-24T02:46:53.211Z,61.16
2018-06-24T02:47:18.786Z,61.74
2018-06-24T02:47:44.351Z,61.54
2018-06-24T02:48:09.943Z,61.54
2018-06-24T02:48:35.526Z,61.83
2018-06-24T02:49:01.085Z,61.74
2018-06-24T02:49:26.706Z,61.64
2018-06-24T02:49:52.262Z,61.54
2018-06-24T02:50:17.840Z,61.35
2018-06-24T02:50:43.405Z,61.06
2018-06-24T02:51:08.983Z,61.35
2018-06-24T02:51:34.548Z,61.25
2018-06-24T02:52:00.123Z,60.96
2018-06-24T02:52:25.679Z,61.54
2018-06-24T02:52:51.385Z,60.96
2018-06-24T02:53:16.913Z,61.54
2018-06-24T02:53:42.530Z,61.16
2018-06-24T02:54:08.080Z,61.35
2018-06-24T02:54:33.629Z,61.35
2018-06-24T02:54:59.227Z,61.16
2018-06-24T02:55:24.781Z,61.25
2018-06-24T02:55:50.342Z,61.25
2018-06-24T02:56:15.917Z,61.35
2018-06-24T02:56:41.475Z,61.25
2018-06-24T02:57:07.047Z,61.35
2018-06-24T02:57:32.605Z,61.16
2018-06-24T02:57:58.194Z,61.16
2018-06-24T02:58:23.760Z,61.16
2018-06-24T02:58:49.331Z,61.35
2018-06-24T02:59:14.891Z,61.25
2018-06-24T02:59:40.453Z,61.25
2018-06-24T03:00:06.023Z,61.25
2018-06-24T03:00:31.591Z,61.06
2018-06-24T03:00:57.155Z,61.16
2018-06-24T03:01:22.714Z,61.25
2018-06-24T03:01:48.276Z,61.16
2018-06-24T03:02:13.897Z,61.44
2018-06-24T03:02:39.473Z,61.16
2018-06-24T03:03:05.041Z,61.16
2018-06-24T03:03:30.606Z,61.25
2018-06-24T03:03:56.170Z,61.35
2018-06-24T03:04:21.741Z,61.35
2018-06-24T03:04:47.321Z,61.16
2018-06-24T03:05:12.873Z,61.16
2018-06-24T03:05:38.445Z,61.35
2018-06-24T03:06:04.019Z,61.16
2018-06-24T03:06:29.609Z,61.35
2018-06-24T03:06:55.170Z,61.35
2018-06-24T03:07:20.729Z,61.35
2018-06-24T03:07:46.309Z,61.35
2018-06-24T03:08:11.861Z,61.16
2018-06-24T03:08:37.426Z,61.35
2018-06-24T03:09:02.979Z,61.35
2018-06-24T03:09:28.582Z,61.35
2018-06-24T03:09:54.173Z,61.35
2018-06-24T03:10:19.742Z,61.35
2018-06-24T03:10:45.309Z,61.16
2018-06-24T03:11:10.883Z,61.16
2018-06-24T03:11:36.456Z,61.35
2018-06-24T03:12:02.027Z,61.16
2018-06-24T03:12:27.589Z,61.25
2018-06-24T03:12:53.182Z,61.35
2018-06-24T03:13:18.733Z,61.16
2018-06-24T03:13:44.299Z,61.35
2018-06-24T03:14:09.893Z,61.25
2018-06-24T03:14:35.483Z,61.25
2018-06-24T03:15:01.114Z,61.35
2018-06-24T03:15:26.624Z,61.25
2018-06-24T03:15:52.174Z,61.16
2018-06-24T03:16:17.748Z,61.35
2018-06-24T03:16:43.314Z,61.54
2018-06-24T03:17:08.888Z,61.35
2018-06-24T03:17:34.452Z,61.25
2018-06-24T03:18:00.039Z,61.25
2018-06-24T03:18:25.603Z,61.25
2018-06-24T03:18:51.196Z,61.35
2018-06-24T03:19:16.751Z,61.25
2018-06-24T03:19:42.300Z,61.35
2018-06-24T03:20:07.862Z,61.16
2018-06-24T03:20:33.456Z,61.44
2018-06-24T03:20:59.027Z,61.35
2018-06-24T03:21:24.610Z,61.16
2018-06-24T03:21:50.170Z,61.44
2018-06-24T03:22:15.736Z,61.64
2018-06-24T03:22:41.331Z,61.64
2018-06-24T03:23:06.932Z,61.44
2018-06-24T03:23:32.513Z,61.16
2018-06-24T03:23:58.069Z,61.44
2018-06-24T03:24:23.604Z,61.35
2018-06-24T03:24:49.211Z,61.06
2018-06-24T03:25:14.776Z,61.44
2018-06-24T03:25:40.350Z,61.54
2018-06-24T03:26:05.929Z,61.44
2018-06-24T03:26:31.542Z,61.54
2018-06-24T03:26:57.127Z,61.44
2018-06-24T03:27:22.691Z,61.54
2018-06-24T03:27:48.258Z,61.54
2018-06-24T03:28:13.823Z,61.16
2018-06-24T03:28:39.388Z,61.25
2018-06-24T03:29:04.951Z,61.35
2018-06-24T03:29:30.526Z,61.16
2018-06-24T03:29:56.080Z,61.25
2018-06-24T03:30:21.637Z,61.25
2018-06-24T03:30:47.198Z,61.25
2018-06-24T03:31:13.136Z,61.25
2018-06-24T03:31:38.332Z,61.25
2018-06-24T03:32:03.923Z,61.44
2018-06-24T03:32:29.489Z,61.44
2018-06-24T03:32:55.032Z,61.25
2018-06-24T03:33:20.597Z,61.35
2018-06-24T03:33:46.162Z,61.35
2018-06-24T03:34:11.737Z,61.44
2018-06-24T03:34:37.314Z,61.16
2018-06-24T03:35:02.899Z,61.16
2018-06-24T03:35:28.455Z,61.25
2018-06-24T03:35:54.132Z,61.25
2018-06-24T03:36:19.714Z,61.25
2018-06-24T03:36:45.272Z,61.16
2018-06-24T03:37:10.835Z,61.16
2018-06-24T03:37:36.399Z,61.16
2018-06-24T03:38:01.967Z,61.16
2018-06-24T03:38:27.544Z,61.35
2018-06-24T03:38:53.101Z,61.16
2018-06-24T03:39:18.722Z,61.16
2018-06-24T03:39:44.294Z,61.16
2018-06-24T03:40:09.851Z,61.35
2018-06-24T03:40:35.429Z,61.35
2018-06-24T03:41:00.995Z,61.35
2018-06-24T03:41:26.558Z,61.16
2018-06-24T03:41:52.123Z,61.06
2018-06-24T03:42:17.730Z,61.25
2018-06-24T03:42:43.304Z,61.25
2018-06-24T03:43:08.889Z,61.25
2018-06-24T03:43:34.463Z,61.16
2018-06-24T03:44:00.034Z,61.35
2018-06-24T03:44:25.646Z,61.16
2018-06-24T03:44:51.198Z,61.25
2018-06-24T03:45:16.770Z,61.16
2018-06-24T03:45:42.344Z,61.44
2018-06-24T03:46:07.922Z,61.44
2018-06-24T03:46:33.476Z,61.35
2018-06-24T03:46:59.034Z,61.16
2018-06-24T03:47:24.607Z,61.44
2018-06-24T03:47:50.185Z,61.44
2018-06-24T03:48:15.731Z,61.35
2018-06-24T03:48:41.310Z,61.25
2018-06-24T03:49:06.869Z,61.35
2018-06-24T03:49:32.428Z,61.16
2018-06-24T03:49:57.992Z,61.44
2018-06-24T03:50:23.562Z,61.44
2018-06-24T03:50:49.122Z,61.35
2018-06-24T03:51:14.698Z,61.44
2018-06-24T03:51:40.279Z,61.54
2018-06-24T03:52:05.835Z,61.44
2018-06-24T03:52:31.414Z,61.44
2018-06-24T03:52:56.987Z,61.54
2018-06-24T03:53:22.543Z,61.35
2018-06-24T03:53:48.114Z,61.16
2018-06-24T03:54:13.664Z,61.54
2018-06-24T03:54:39.261Z,61.54
2018-06-24T03:55:04.842Z,61.44
2018-06-24T03:55:30.434Z,61.44
2018-06-24T03:55:55.996Z,61.54
2018-06-24T03:56:21.568Z,61.54
2018-06-24T03:56:47.130Z,61.44
2018-06-24T03:57:12.683Z,61.44
2018-06-24T03:57:38.284Z,61.44
2018-06-24T03:58:03.909Z,61.44
2018-06-24T03:58:29.414Z,61.54
2018-06-24T03:58:54.982Z,61.54
2018-06-24T03:59:20.613Z,61.54
2018-06-24T03:59:46.222Z,61.54
2018-06-24T04:00:11.768Z,61.44
2018-06-24T04:00:37.324Z,61.54
2018-06-24T04:01:02.917Z,61.44
2018-06-24T04:01:28.498Z,61.54
2018-06-24T04:01:54.055Z,61.44
2018-06-24T04:02:19.632Z,61.44
2018-06-24T04:02:45.210Z,61.54
2018-06-24T04:03:10.775Z,61.35
2018-06-24T04:03:36.351Z,61.44
2018-06-24T04:04:01.908Z,61.54
2018-06-24T04:04:27.486Z,61.54
2018-06-24T04:04:53.054Z,61.44
2018-06-24T04:05:18.629Z,61.35
2018-06-24T04:05:44.216Z,61.35
2018-06-24T04:06:09.786Z,61.35
2018-06-24T04:06:35.362Z,61.06
2018-06-24T04:07:00.918Z,60.86
2018-06-24T04:07:26.488Z,61.25
2018-06-24T04:07:52.106Z,61.06
2018-06-24T04:08:17.676Z,61.06
2018-06-24T04:08:43.246Z,61.16
2018-06-24T04:09:08.825Z,61.16
2018-06-24T04:09:34.397Z,61.06
2018-06-24T04:09:59.963Z,61.25
2018-06-24T04:10:25.543Z,61.44
2018-06-24T04:10:51.103Z,61.16
2018-06-24T04:11:16.692Z,61.06
2018-06-24T04:11:42.291Z,61.16
2018-06-24T04:12:07.838Z,61.06
2018-06-24T04:12:33.411Z,61.25
2018-06-24T04:12:58.985Z,61.44
2018-06-24T04:13:24.542Z,61.44
2018-06-24T04:13:50.102Z,61.16
2018-06-24T04:14:15.666Z,61.44
2018-06-24T04:14:41.232Z,61.16
2018-06-24T04:15:06.807Z,61.06
2018-06-24T04:15:32.369Z,60.86
2018-06-24T04:15:57.947Z,60.96
2018-06-24T04:16:23.501Z,61.44
2018-06-24T04:16:49.086Z,61.06
2018-06-24T04:17:14.652Z,61.06
2018-06-24T04:17:40.233Z,60.96
2018-06-24T04:18:05.801Z,61.06
2018-06-24T04:18:31.388Z,61.06
2018-06-24T04:18:56.955Z,60.96
2018-06-24T04:19:22.517Z,61.44
2018-06-24T04:19:48.086Z,61.25
2018-06-24T04:20:13.652Z,61.16
2018-06-24T04:20:39.208Z,61.06
2018-06-24T04:21:04.743Z,61.16
2018-06-24T04:21:30.317Z,61.16
2018-06-24T04:21:55.878Z,61.06
2018-06-24T04:22:21.451Z,60.96
2018-06-24T04:22:47.019Z,61.25
2018-06-24T04:23:12.593Z,61.44
2018-06-24T04:23:38.129Z,61.16
2018-06-24T04:24:03.693Z,60.96
2018-06-24T04:24:29.267Z,60.96
2018-06-24T04:24:54.849Z,61.06
2018-06-24T04:25:20.416Z,61.06
2018-06-24T04:25:46.067Z,61.44
2018-06-24T04:26:11.574Z,61.06
2018-06-24T04:26:37.136Z,61.06
2018-06-24T04:27:02.686Z,61.06
2018-06-24T04:27:28.239Z,61.06
2018-06-24T04:27:53.806Z,60.96
2018-06-24T04:28:19.373Z,61.44
2018-06-24T04:28:44.953Z,60.96
2018-06-24T04:29:10.555Z,61.16
2018-06-24T04:29:36.103Z,60.86
2018-06-24T04:30:01.667Z,61.25
2018-06-24T04:30:27.232Z,60.86
2018-06-24T04:30:52.789Z,61.25
2018-06-24T04:31:18.373Z,61.06
2018-06-24T04:31:43.938Z,61.44
2018-06-24T04:32:09.500Z,61.06
2018-06-24T04:32:35.077Z,61.25
2018-06-24T04:33:00.644Z,61.44
2018-06-24T04:33:26.226Z,61.16
2018-06-24T04:33:51.779Z,61.25
2018-06-24T04:34:17.367Z,61.16
2018-06-24T04:34:42.947Z,61.16
2018-06-24T04:35:08.505Z,61.25
2018-06-24T04:35:34.069Z,61.25
2018-06-24T04:35:59.633Z,61.25
2018-06-24T04:36:25.179Z,61.25
2018-06-24T04:36:50.750Z,61.44
2018-06-24T04:37:16.311Z,61.06
2018-06-24T04:37:41.875Z,61.25
2018-06-24T04:38:07.419Z,61.35
2018-06-24T04:38:33.004Z,61.35
2018-06-24T04:38:58.557Z,61.06
2018-06-24T04:39:24.123Z,61.16
2018-06-24T04:39:49.775Z,60.86
2018-06-24T04:40:15.436Z,61.06
2018-06-24T04:40:41.036Z,61.06
2018-06-24T04:41:06.539Z,61.44
2018-06-24T04:41:32.181Z,61.06
2018-06-24T04:41:57.766Z,61.16
2018-06-24T04:42:23.419Z,61.35
2018-06-24T04:42:48.959Z,61.44
2018-06-24T04:43:14.526Z,61.16
2018-06-24T04:43:40.070Z,61.64
2018-06-24T04:44:05.650Z,61.16
2018-06-24T04:44:31.211Z,61.44
2018-06-24T04:44:56.768Z,61.44
2018-06-24T04:45:22.333Z,61.44
2018-06-24T04:45:47.902Z,61.16
2018-06-24T04:46:13.474Z,61.64
2018-06-24T04:46:39.080Z,61.25
2018-06-24T04:47:04.667Z,61.16
2018-06-24T04:47:30.229Z,61.25
2018-06-24T04:47:55.817Z,61.35
2018-06-24T04:48:21.416Z,61.54
2018-06-24T04:48:46.972Z,61.44
2018-06-24T04:49:12.535Z,61.64
2018-06-24T04:49:38.090Z,61.35
2018-06-24T04:50:03.656Z,61.54
2018-06-24T04:50:29.237Z,61.44
2018-06-24T04:50:54.810Z,61.54
2018-06-24T04:51:20.368Z,61.44
2018-06-24T04:51:46.014Z,61.16
2018-06-24T04:52:11.532Z,61.35
2018-06-24T04:52:37.109Z,61.54
2018-06-24T04:53:02.674Z,61.54
2018-06-24T04:53:28.219Z,61.44
2018-06-24T04:53:53.796Z,61.44
2018-06-24T04:54:19.363Z,61.44
2018-06-24T04:54:44.942Z,61.54
2018-06-24T04:55:10.523Z,61.06
2018-06-24T04:55:36.107Z,61.25
2018-06-24T04:56:01.662Z,61.16
2018-06-24T04:56:27.279Z,61.16
2018-06-24T04:56:52.840Z,61.35
2018-06-24T04:57:18.400Z,61.16
2018-06-24T04:57:43.953Z,61.25
2018-06-24T04:58:09.527Z,61.06
2018-06-24T04:58:35.084Z,61.54
2018-06-24T04:59:00.667Z,61.54
2018-06-24T04:59:26.226Z,61.44
2018-06-24T04:59:51.845Z,61.16
2018-06-24T05:00:17.492Z,61.06
2018-06-24T05:00:43.076Z,61.06
2018-06-24T05:01:08.628Z,61.44
2018-06-24T05:01:34.229Z,61.44
2018-06-24T05:01:59.801Z,61.16
2018-06-24T05:02:25.365Z,61.44
2018-06-24T05:02:50.942Z,61.25
2018-06-24T05:03:16.511Z,61.16
2018-06-24T05:03:42.065Z,61.25
2018-06-24T05:04:07.647Z,61.16
2018-06-24T05:04:33.230Z,61.25
2018-06-24T05:04:58.768Z,61.16
2018-06-24T05:05:24.322Z,61.25
2018-06-24T05:05:49.902Z,61.25
2018-06-24T05:06:15.463Z,61.06
2018-06-24T05:06:41.030Z,61.25
2018-06-24T05:07:06.607Z,61.25
2018-06-24T05:07:32.177Z,61.16
2018-06-24T05:07:57.734Z,61.16
2018-06-24T05:08:23.289Z,61.25
2018-06-24T05:08:48.860Z,61.35
2018-06-24T05:09:14.419Z,61.44
2018-06-24T05:09:40.008Z,61.54
2018-06-24T05:10:05.599Z,61.44
2018-06-24T05:10:31.144Z,61.25
2018-06-24T05:10:56.727Z,61.25
2018-06-24T05:11:22.302Z,61.44
2018-06-24T05:11:47.865Z,61.35
2018-06-24T05:12:13.456Z,61.44
2018-06-24T05:12:39.034Z,61.44
2018-06-24T05:13:04.603Z,61.54
2018-06-24T05:13:30.178Z,61.35
2018-06-24T05:13:55.757Z,61.44
2018-06-24T05:14:21.325Z,61.44
2018-06-24T05:14:46.888Z,61.44
2018-06-24T05:15:12.454Z,60.86
2018-06-24T05:15:38.030Z,60.68
2018-06-24T05:16:03.598Z,60.68
2018-06-24T05:16:29.141Z,60.58
2018-06-24T05:16:54.729Z,60.68
2018-06-24T05:17:20.298Z,60.68
2018-06-24T05:17:45.860Z,60.96
2018-06-24T05:18:11.425Z,60.68
2018-06-24T05:18:37.049Z,60.68
2018-06-24T05:19:02.607Z,60.77
2018-06-24T05:19:28.192Z,60.77
2018-06-24T05:19:53.747Z,60.77
2018-06-24T05:20:19.319Z,60.77
2018-06-24T05:20:44.889Z,60.77
2018-06-24T05:21:10.463Z,60.77
2018-06-24T05:21:36.019Z,60.68
2018-06-24T05:22:01.593Z,60.86
2018-06-24T05:22:27.174Z,60.77
2018-06-24T05:22:52.745Z,60.86
2018-06-24T05:23:18.309Z,60.68
2018-06-24T05:23:43.884Z,60.68
2018-06-24T05:24:09.453Z,60.77
2018-06-24T05:24:35.024Z,60.77
2018-06-24T05:25:00.603Z,60.96
2018-06-24T05:25:26.181Z,60.86
2018-06-24T05:25:51.753Z,60.86
2018-06-24T05:26:17.346Z,61.16
2018-06-24T05:26:42.960Z,61.16
2018-06-24T05:27:08.529Z,60.77
2018-06-24T05:27:34.149Z,61.16
2018-06-24T05:27:59.661Z,60.96
2018-06-24T05:28:25.224Z,60.96
2018-06-24T05:28:50.799Z,60.77
2018-06-24T05:29:16.365Z,60.77